Time;durP1;ratioP1;P1;durP2;ratioP2;P2;SDS_P1;SDS_P2;PMS_P1;PMS_P2;Temp;Humidity;BMP_temperature;BMP_pressure;BME280_temperature;BME280_humidity;BME280_pressure;Samples;Min_cycle;Max_cycle;Signal;HPM_P1;HPM_P2
2021/10/28 00:12:20;;;;;;;0.40;0.30;;;;;;;12.05;99.67;101764.59;5016394;28;20466;-73
2021/10/28 00:14:52;;;;;;;0.40;0.30;;;;;;;12.06;99.76;101778.97;5016256;28;20523;-73
2021/10/28 00:17:24;;;;;;;1.90;1.80;;;;;;;12.06;99.49;101776.25;5002663;28;20578;-73
2021/10/28 00:19:52;;;;;;;0.40;0.40;;;;;;;12.03;98.83;101765.94;5016137;28;20972;-73
2021/10/28 00:22:18;;;;;;;0.40;0.30;;;;;;;12.00;97.98;101782.81;5016204;28;20455;-73
2021/10/28 00:24:45;;;;;;;0.73;0.73;;;;;;;12.03;97.84;101776.81;5016373;28;20535;-73
2021/10/28 00:27:12;;;;;;;0.40;0.30;;;;;;;12.04;98.33;101779.25;5016196;28;20476;-73
2021/10/28 00:29:38;;;;;;;0.40;0.30;;;;;;;12.05;98.60;101782.78;5016411;28;20483;-73
2021/10/28 00:32:06;;;;;;;0.40;0.30;;;;;;;11.98;97.64;101776.84;5016150;28;20452;-73
2021/10/28 00:34:33;;;;;;;0.40;0.30;;;;;;;11.96;97.00;101776.31;5016112;28;20470;-73
2021/10/28 00:37:00;;;;;;;0.93;0.93;;;;;;;11.95;97.13;101771.97;5016007;28;20464;-73
2021/10/28 00:39:27;;;;;;;0.40;0.23;;;;;;;11.88;96.92;101780.44;5015884;28;20443;-73
2021/10/28 00:41:54;;;;;;;0.40;0.30;;;;;;;11.79;97.23;101769.31;5016022;28;20818;-73
2021/10/28 00:44:21;;;;;;;0.40;0.30;;;;;;;11.76;97.84;101772.59;5015997;28;20444;-73
2021/10/28 00:46:48;;;;;;;0.40;0.30;;;;;;;11.72;98.24;101771.50;5015874;28;20499;-73
2021/10/28 00:49:14;;;;;;;0.40;0.30;;;;;;;11.68;98.71;101770.44;5015758;28;20491;-73
2021/10/28 00:51:43;;;;;;;0.40;0.30;;;;;;;11.63;98.87;101774.00;5015813;28;20448;-73
2021/10/28 00:54:15;;;;;;;0.40;0.30;;;;;;;11.59;99.16;101775.66;5015742;28;20786;-73
2021/10/28 00:56:43;;;;;;;0.40;0.30;;;;;;;11.52;99.52;101777.88;5015851;28;20460;-73
2021/10/28 00:59:10;;;;;;;1.20;1.10;;;;;;;11.50;99.82;101773.78;5015402;28;20833;-74
2021/10/28 01:01:36;;;;;;;0.40;0.30;;;;;;;11.45;99.85;101768.38;5015611;28;20445;-72
2021/10/28 01:04:04;;;;;;;0.40;0.30;;;;;;;11.39;99.96;101777.66;5015124;28;20802;-73
2021/10/28 01:06:31;;;;;;;0.40;0.30;;;;;;;11.29;100.00;101773.09;5015464;28;20482;-73
2021/10/28 01:08:58;;;;;;;0.40;0.30;;;;;;;11.26;100.00;101773.63;5015423;28;20516;-73
2021/10/28 01:11:27;;;;;;;0.40;0.30;;;;;;;11.23;100.00;101768.75;5015430;28;20452;-73
2021/10/28 01:13:56;;;;;;;0.40;0.30;;;;;;;11.14;100.00;101765.78;5015395;28;20460;-73
2021/10/28 01:16:23;;;;;;;0.40;0.30;;;;;;;11.05;100.00;101770.16;5015256;28;20460;-73
2021/10/28 01:18:49;;;;;;;0.40;0.30;;;;;;;10.97;100.00;101763.38;5015297;28;20443;-73
2021/10/28 01:21:17;;;;;;;0.40;0.23;;;;;;;10.95;99.94;101765.56;5015208;28;20444;-73
2021/10/28 01:23:46;;;;;;;0.40;0.30;;;;;;;10.93;99.68;101765.00;5015479;28;20439;-73
2021/10/28 01:26:15;;;;;;;0.40;0.30;;;;;;;10.83;99.88;101765.84;5015112;28;20468;-68
2021/10/28 01:28:56;;;;;;;0.40;0.30;;;;;;;10.77;99.58;101763.44;5015040;28;20480;-70
2021/10/28 01:31:26;;;;;;;0.40;0.30;;;;;;;10.71;99.43;101768.03;5015103;28;20432;-71
2021/10/28 01:33:54;;;;;;;0.40;0.30;;;;;;;10.65;99.66;101769.13;5015031;28;20444;-70
2021/10/28 01:36:24;;;;;;;0.40;0.30;;;;;;;10.59;100.00;101776.44;5014752;28;20468;-71
2021/10/28 01:38:51;;;;;;;0.40;0.30;;;;;;;10.55;99.94;101769.13;5015223;28;20801;-71
2021/10/28 01:41:18;;;;;;;0.40;0.30;;;;;;;10.50;99.75;101767.25;5014849;28;20471;-72
2021/10/28 01:43:45;;;;;;;0.40;0.30;;;;;;;10.42;100.00;101770.47;5014849;28;20444;-72
2021/10/28 01:46:12;;;;;;;0.40;0.30;;;;;;;10.43;100.00;101766.69;5014695;28;20464;-72
2021/10/28 01:48:40;;;;;;;0.40;0.30;;;;;;;10.40;100.00;101766.41;5014643;28;20483;-72
2021/10/28 01:51:08;;;;;;;0.53;0.50;;;;;;;10.40;100.00;101767.22;5013928;28;20479;-72
2021/10/28 01:53:38;;;;;;;0.40;0.20;;;;;;;10.40;100.00;101764.50;5014684;28;20518;-72
2021/10/28 01:56:06;;;;;;;0.40;0.30;;;;;;;10.34;100.00;101768.31;5014511;28;20470;-72
2021/10/28 01:58:32;;;;;;;0.40;0.30;;;;;;;10.32;100.00;101763.19;5014540;28;20515;-72
2021/10/28 02:00:59;;;;;;;0.40;0.30;;;;;;;10.24;100.00;101763.69;5014504;28;20444;-72
2021/10/28 02:03:26;;;;;;;0.40;0.30;;;;;;;10.22;100.00;101756.88;5014445;28;20444;-72
2021/10/28 02:05:53;;;;;;;0.40;0.30;;;;;;;10.19;100.00;101758.25;5014084;28;20459;-72
2021/10/28 02:08:20;;;;;;;0.40;0.30;;;;;;;10.11;100.00;101759.59;5014301;28;20488;-72
2021/10/28 02:10:48;;;;;;;0.40;0.30;;;;;;;10.08;100.00;101754.72;5014380;28;20439;-72
2021/10/28 02:13:14;;;;;;;0.40;0.30;;;;;;;10.02;100.00;101754.97;5014270;28;20452;-71
2021/10/28 02:15:41;;;;;;;1.50;1.40;;;;;;;9.98;100.00;101753.88;5014311;28;20452;-71
2021/10/28 02:18:08;;;;;;;0.40;0.30;;;;;;;9.99;100.00;101760.94;5013880;28;20446;-72
2021/10/28 02:20:35;;;;;;;0.60;0.47;;;;;;;9.95;100.00;101759.81;5013846;28;20943;-71
2021/10/28 02:23:03;;;;;;;17.37;10.97;;;;;;;9.88;100.00;101751.16;5014185;28;20490;-71
2021/10/28 02:25:29;;;;;;;0.40;0.30;;;;;;;9.83;100.00;101752.78;5014116;28;20443;-72
2021/10/28 02:27:57;;;;;;;0.40;0.30;;;;;;;9.79;100.00;101754.41;5013902;28;20804;-72
2021/10/28 02:30:24;;;;;;;1.23;0.50;;;;;;;9.71;100.00;101754.09;5013713;28;20448;-71
2021/10/28 02:32:50;;;;;;;0.40;0.30;;;;;;;9.62;100.00;101756.50;5014084;28;20440;-71
2021/10/28 02:35:17;;;;;;;0.40;0.30;;;;;;;9.53;100.00;101752.69;5013922;28;20447;-72
2021/10/28 02:37:44;;;;;;;0.40;0.30;;;;;;;9.51;100.00;101741.31;5013843;28;20463;-72
2021/10/28 02:40:12;;;;;;;0.40;0.30;;;;;;;9.48;99.49;101752.69;5013543;28;20824;-72
2021/10/28 02:42:39;;;;;;;0.40;0.30;;;;;;;9.45;99.41;101748.59;5013527;28;20938;-72
2021/10/28 02:45:08;;;;;;;0.40;0.30;;;;;;;9.32;99.53;101749.88;5013807;28;20448;-72
2021/10/28 02:47:35;;;;;;;0.40;0.30;;;;;;;9.35;99.31;101752.06;5013354;28;20464;-72
2021/10/28 02:50:01;;;;;;;0.40;0.30;;;;;;;9.33;99.40;101758.81;5013689;28;20491;-72
2021/10/28 02:52:28;;;;;;;0.40;0.27;;;;;;;9.27;100.00;101749.88;5013690;28;20448;-72
2021/10/28 02:54:54;;;;;;;0.40;0.30;;;;;;;9.29;100.00;101745.00;5013747;28;20448;-72
2021/10/28 02:57:21;;;;;;;0.40;0.30;;;;;;;9.34;100.00;101750.47;5013498;28;20470;-72
2021/10/28 02:59:48;;;;;;;0.50;0.40;;;;;;;9.37;100.00;101748.28;5013604;28;20444;-71
2021/10/28 03:02:15;;;;;;;0.40;0.30;;;;;;;9.35;100.00;101752.06;5013499;28;20447;-71
2021/10/28 03:04:42;;;;;;;0.40;0.30;;;;;;;9.36;100.00;101752.88;5013420;28;20468;-71
2021/10/28 03:07:08;;;;;;;0.40;0.30;;;;;;;9.29;100.00;101749.59;5013504;28;20530;-71
2021/10/28 03:09:35;;;;;;;0.40;0.20;;;;;;;9.28;100.00;101751.50;5013409;28;20488;-71
2021/10/28 03:12:03;;;;;;;0.40;0.30;;;;;;;9.33;100.00;101754.22;5013215;28;20803;-71
2021/10/28 03:14:35;;;;;;;0.40;0.30;;;;;;;9.32;100.00;101746.38;5013403;28;20817;-71
2021/10/28 03:17:04;;;;;;;0.40;0.20;;;;;;;9.31;100.00;101745.56;5013274;28;20476;-71
2021/10/28 03:19:39;;;;;;;0.40;0.30;;;;;;;9.24;100.00;101744.19;5013442;28;20450;-71
2021/10/28 03:27:33;;;;;;;0.40;0.30;;;;;;;9.18;100.00;101750.63;5013092;28;20463;-71
2021/10/28 03:30:00;;;;;;;0.40;0.40;;;;;;;9.13;100.00;101750.63;5013172;28;20491;-71
2021/10/28 03:32:28;;;;;;;0.67;0.40;;;;;;;9.16;100.00;101747.38;5013232;28;20455;-71
2021/10/28 03:34:56;;;;;;;0.40;0.30;;;;;;;9.19;100.00;101746.84;5013405;28;20444;-71
2021/10/28 03:37:26;;;;;;;0.40;0.33;;;;;;;9.18;100.00;101751.44;5013293;28;20491;-71
2021/10/28 03:40:14;;;;;;;0.40;0.30;;;;;;;9.19;100.00;101739.56;5013147;28;20551;-71
2021/10/28 03:48:34;;;;;;;0.40;0.30;;;;;;;9.22;100.00;101749.84;5002313;28;20455;-71
2021/10/28 04:08:10;;;;;;;0.40;0.30;;;;;;;9.38;100.00;101749.91;5013056;28;20439;-72
2021/10/28 04:16:43;;;;;;;0.40;0.30;;;;;;;9.37;100.00;101740.19;5016546;28;20494;-72
2021/10/28 04:30:35;;;;;;;0.40;0.40;;;;;;;9.10;100.00;101743.84;4974962;28;20489;-71
2021/10/28 04:33:02;;;;;;;0.40;0.30;;;;;;;9.10;100.00;101746.53;5006405;28;20444;-71
2021/10/28 04:35:28;;;;;;;0.40;0.30;;;;;;;9.02;100.00;101747.84;5016203;28;20491;-71
2021/10/28 04:37:55;;;;;;;0.40;0.30;;;;;;;8.96;100.00;101748.09;5016145;28;20467;-72
2021/10/28 04:40:23;;;;;;;0.40;0.30;;;;;;;8.99;100.00;101750.28;5016117;28;20440;-72
2021/10/28 04:42:49;;;;;;;0.40;0.20;;;;;;;9.00;100.00;101749.19;5016103;28;20446;-71
2021/10/28 04:45:15;;;;;;;0.40;0.30;;;;;;;8.97;100.00;101753.22;5016029;28;20440;-71
2021/10/28 04:47:42;;;;;;;0.40;0.40;;;;;;;9.01;100.00;101750.81;5015868;28;20471;-71
2021/10/28 04:50:10;;;;;;;0.40;0.30;;;;;;;9.05;100.00;101746.50;5015842;28;20487;-72
2021/10/28 04:52:37;;;;;;;0.40;0.30;;;;;;;9.03;100.00;101752.19;5015840;28;20853;-72
2021/10/28 04:55:03;;;;;;;0.40;0.30;;;;;;;9.08;100.00;101735.19;5015784;28;20519;-71
2021/10/28 04:57:32;;;;;;;1.27;1.23;;;;;;;9.12;100.00;101741.69;5015659;28;20490;-72
2021/10/28 04:59:58;;;;;;;0.40;0.30;;;;;;;9.09;100.00;101736.81;5015634;28;20447;-71
2021/10/28 05:02:25;;;;;;;0.40;0.30;;;;;;;9.06;100.00;101735.44;5015627;28;20491;-71
2021/10/28 05:04:51;;;;;;;0.40;0.30;;;;;;;9.09;100.00;101739.50;5015402;28;20462;-71
2021/10/28 05:07:17;;;;;;;0.40;0.30;;;;;;;9.09;100.00;101739.50;5015223;28;20839;-71
2021/10/28 05:09:44;;;;;;;0.40;0.30;;;;;;;9.14;100.00;101733.31;5015168;28;20600;-71
2021/10/28 05:12:11;;;;;;;0.40;0.30;;;;;;;9.10;100.00;101738.44;5015207;28;20517;-71
2021/10/28 05:14:38;;;;;;;0.40;0.30;;;;;;;9.10;100.00;101731.13;5015141;28;20456;-72
2021/10/28 05:17:05;;;;;;;0.40;0.30;;;;;;;9.12;100.00;101732.75;5014974;28;20475;-71
2021/10/28 05:19:34;;;;;;;0.40;0.30;;;;;;;9.10;100.00;101730.31;5015017;28;20436;-72
2021/10/28 05:22:01;;;;;;;0.40;0.30;;;;;;;9.00;100.00;101727.56;5014984;28;20487;-72
2021/10/28 05:24:27;;;;;;;0.40;0.30;;;;;;;9.00;100.00;101727.56;5013967;28;20440;-71
2021/10/28 05:26:54;;;;;;;0.40;0.20;;;;;;;8.98;100.00;101721.59;5014921;28;20460;-72
2021/10/28 05:29:20;;;;;;;0.40;0.30;;;;;;;8.97;100.00;101730.78;5014711;28;20487;-72
2021/10/28 05:31:48;;;;;;;0.50;0.50;;;;;;;8.98;100.00;101733.22;5014597;28;20862;-72
2021/10/28 05:34:14;;;;;;;0.40;0.30;;;;;;;8.92;100.00;101730.78;5014966;28;20470;-68
2021/10/28 05:36:41;;;;;;;0.40;0.30;;;;;;;8.84;100.00;101732.88;5014880;28;20502;-69
2021/10/28 05:39:07;;;;;;;0.40;0.20;;;;;;;8.80;100.00;101733.66;5014967;28;20445;-69
2021/10/28 05:41:34;;;;;;;0.40;0.30;;;;;;;8.77;100.00;101740.41;5014901;28;20444;-69
2021/10/28 05:44:02;;;;;;;0.40;0.30;;;;;;;8.74;100.00;101740.13;5014605;28;20946;-69
2021/10/28 05:46:28;;;;;;;0.40;0.30;;;;;;;8.77;100.00;101739.59;5014415;28;21008;-69
2021/10/28 05:48:56;;;;;;;0.40;0.30;;;;;;;8.77;100.00;101734.19;5014688;28;20451;-69
2021/10/28 05:51:23;;;;;;;0.40;0.30;;;;;;;8.72;100.00;101734.13;5014682;28;20456;-69
2021/10/28 05:53:50;;;;;;;0.40;0.30;;;;;;;8.74;100.00;101742.81;5014684;28;20972;-69
2021/10/28 05:56:17;;;;;;;0.40;0.30;;;;;;;8.72;100.00;101737.69;5014540;28;20472;-69
2021/10/28 05:58:44;;;;;;;0.40;0.30;;;;;;;8.69;100.00;101734.69;5014596;28;20510;-69
2021/10/28 06:01:10;;;;;;;0.40;0.30;;;;;;;8.65;100.00;101728.97;5014498;28;20471;-69
2021/10/28 06:03:38;;;;;;;0.40;0.30;;;;;;;8.59;100.00;101727.31;5014391;28;20452;-69
2021/10/28 06:06:06;;;;;;;0.40;0.30;;;;;;;8.61;100.00;101733.28;5013766;28;20559;-69
2021/10/28 06:08:34;;;;;;;0.40;0.30;;;;;;;8.58;100.00;101728.38;5014123;28;20455;-69
2021/10/28 06:11:00;;;;;;;0.40;0.30;;;;;;;8.54;100.00;101733.50;5013704;28;20913;-69
2021/10/28 06:13:28;;;;;;;0.40;0.30;;;;;;;8.59;100.00;101736.25;5014239;28;20455;-69
2021/10/28 06:15:55;;;;;;;0.40;0.27;;;;;;;8.57;100.00;101735.66;5014163;28;20471;-69
2021/10/28 06:18:41;;;;;;;0.40;0.30;;;;;;;8.46;100.00;101727.78;5014070;28;20447;-69
2021/10/28 06:21:10;;;;;;;0.40;0.30;;;;;;;8.47;100.00;101734.78;5013680;28;20898;-68
2021/10/28 06:23:38;;;;;;;0.40;0.20;;;;;;;8.47;100.00;101738.31;5013932;28;20466;-68
2021/10/28 06:26:05;;;;;;;0.40;0.20;;;;;;;8.42;100.00;101738.25;5013849;28;20539;-68
2021/10/28 06:28:32;;;;;;;0.40;0.23;;;;;;;8.42;100.00;101748.25;5013438;28;20475;-68
2021/10/28 06:30:59;;;;;;;0.97;0.90;;;;;;;8.35;100.00;101737.63;5013718;28;20484;-69
2021/10/28 06:33:27;;;;;;;0.40;0.30;;;;;;;8.37;100.00;101734.69;5013448;28;21011;-68
2021/10/28 06:35:55;;;;;;;0.40;0.27;;;;;;;8.36;100.00;101736.53;5013202;28;20827;-68
2021/10/28 06:38:23;;;;;;;0.60;0.60;;;;;;;8.47;100.00;101737.50;5013754;28;20487;-68
2021/10/28 06:40:50;;;;;;;0.40;0.30;;;;;;;8.48;100.00;101733.72;5013159;28;20877;-68
2021/10/28 06:43:16;;;;;;;0.40;0.30;;;;;;;8.54;100.00;101733.50;5013575;28;20510;-68
2021/10/28 06:45:42;;;;;;;0.40;0.30;;;;;;;8.57;100.00;101740.25;5013839;28;20444;-68
2021/10/28 06:48:09;;;;;;;0.40;0.30;;;;;;;8.61;100.00;101740.56;5013747;28;20452;-69
2021/10/28 06:50:41;;;;;;;1.20;1.13;;;;;;;8.65;100.00;101736.28;5013903;28;20523;-69
2021/10/28 06:53:12;;;;;;;0.40;0.30;;;;;;;8.61;100.00;101741.38;5013712;28;20458;-69
2021/10/28 06:55:47;;;;;;;0.40;0.27;;;;;;;8.66;100.00;101738.69;5013702;28;20436;-69
2021/10/28 07:03:41;;;;;;;0.57;0.57;;;;;;;8.83;100.00;101733.97;5013376;28;20925;-69
2021/10/28 07:06:11;;;;;;;0.70;0.70;;;;;;;8.91;100.00;101735.38;5013064;28;20997;-71
2021/10/28 07:08:40;;;;;;;0.40;0.30;;;;;;;8.93;100.00;101732.38;5013829;28;20421;-69
2021/10/28 07:11:12;;;;;;;0.40;0.30;;;;;;;8.92;100.00;101728.06;5013446;28;20894;-69
2021/10/28 07:13:42;;;;;;;0.40;0.30;;;;;;;9.01;100.00;101734.59;5013536;28;20428;-69
2021/10/28 07:16:15;;;;;;;4.33;2.10;;;;;;;9.15;100.00;101733.03;5013370;28;20472;-69
2021/10/28 07:18:49;;;;;;;0.40;0.30;;;;;;;9.25;100.00;101732.28;5013460;28;20486;-69
2021/10/28 07:32:47;;;;;;;0.40;0.30;;;;;;;9.49;100.00;101729.97;5012500;28;21065;-71
2021/10/28 08:16:59;;;;;;;0.40;0.20;;;;;;;10.41;100.00;101708.47;5016340;28;20490;-70
2021/10/28 08:19:32;;;;;;;0.40;0.30;;;;;;;10.53;100.00;101706.28;5016555;28;20505;-71
2021/10/28 08:22:00;;;;;;;4.73;3.60;;;;;;;10.56;100.00;101694.91;5016464;28;20436;-70
2021/10/28 08:28:40;;;;;;;0.40;0.30;;;;;;;10.68;100.00;101702.75;5016372;28;20474;-71
2021/10/28 08:30:07;;;;;;;0.40;0.30;;;;;;;10.79;100.00;101704.34;5015904;28;20490;-69
2021/10/28 08:32:35;;;;;;;0.40;0.30;;;;;;;10.83;100.00;101700.78;5015918;28;20827;-71
2021/10/28 08:35:02;;;;;;;0.40;0.30;;;;;;;10.88;99.64;101701.88;5016158;28;20440;-70
2021/10/28 08:37:35;;;;;;;1.63;1.53;;;;;;;10.96;99.27;101693.19;5016097;28;20832;-70
2021/10/28 08:40:02;;;;;;;0.40;0.30;;;;;;;10.99;99.91;101692.63;5016140;28;20475;-70
2021/10/28 08:42:28;;;;;;;0.40;0.30;;;;;;;11.07;99.84;101690.16;5016001;28;20470;-71
2021/10/28 08:44:58;;;;;;;0.40;0.30;;;;;;;11.12;99.80;101689.34;5015848;28;20491;-70
2021/10/28 08:47:26;;;;;;;0.50;0.50;;;;;;;11.18;100.00;101687.41;5015843;28;20468;-71
2021/10/28 08:49:57;;;;;;;0.40;0.30;;;;;;;11.23;99.56;101687.38;5015848;28;20483;-71
2021/10/28 09:26:30;;;;;;;0.40;0.23;;;;;;;12.42;93.85;101665.41;5089976;28;20992;-71
2021/10/28 09:29:13;;;;;;;0.40;0.30;;;;;;;12.54;93.39;101670.44;5090269;28;20453;-71
2021/10/28 09:31:51;;;;;;;0.40;0.30;;;;;;;12.57;93.70;101661.72;5089445;28;20456;-71
2021/10/28 09:34:41;;;;;;;0.40;0.30;;;;;;;12.62;93.96;101658.97;5090153;28;20435;-71
2021/10/28 09:45:56;;;;;;;0.40;0.30;;;;;;;12.87;91.36;101653.22;5058531;28;20470;-71
2021/10/28 09:48:31;;;;;;;0.50;0.40;;;;;;;12.92;91.81;101656.97;5089596;28;20425;-71
2021/10/28 09:51:01;;;;;;;0.50;0.30;;;;;;;13.04;91.50;101649.22;5089899;28;20494;-71
2021/10/28 09:53:31;;;;;;;0.40;0.30;;;;;;;13.18;91.34;101650.13;5089885;28;20851;-71
2021/10/28 09:59:02;;;;;;;0.40;0.30;;;;;;;13.27;91.37;101650.31;5027272;28;20526;-71
2021/10/28 10:01:32;;;;;;;0.40;0.23;;;;;;;13.33;91.37;101636.34;5077961;28;20450;-71
2021/10/28 10:04:00;;;;;;;0.40;0.30;;;;;;;13.39;91.07;101650.69;5089637;28;20849;-71
2021/10/28 10:06:29;;;;;;;0.40;0.27;;;;;;;13.59;88.55;101660.47;5089475;28;20525;-71
2021/10/28 10:08:55;;;;;;;0.40;0.30;;;;;;;13.73;87.86;101653.19;5089573;28;20523;-71
2021/10/28 10:11:24;;;;;;;0.40;0.20;;;;;;;13.87;86.83;101645.88;5080365;28;20472;-71
2021/10/28 10:13:51;;;;;;;0.40;0.20;;;;;;;13.98;85.96;101651.97;5075926;28;20464;-71
2021/10/28 10:16:18;;;;;;;0.40;0.40;;;;;;;14.05;86.25;101641.50;5075732;28;20465;-71
2021/10/28 10:18:48;;;;;;;0.40;0.23;;;;;;;14.13;86.07;101645.47;5075738;28;20507;-71
2021/10/28 10:21:27;;;;;;;0.40;0.30;;;;;;;14.19;85.62;101644.25;5075805;28;20426;-71
2021/10/28 10:24:14;;;;;;;0.40;0.30;;;;;;;14.28;85.52;101645.19;5075774;28;20464;-72
2021/10/28 10:27:25;;;;;;;0.40;0.30;;;;;;;14.34;85.94;101644.00;5077036;28;20472;-71
2021/10/28 11:31:22;;;;;;;0.40;0.30;;;;;;;21.64;54.23;101600.50;5063481;28;20441;-71
2021/10/28 12:21:41;;;;;;;0.40;0.30;;;;;;;27.11;39.20;101560.53;5073262;28;20461;-71
2021/10/28 13:03:43;;;;;;;0.40;0.30;;;;;;;27.23;37.12;101517.66;5072899;28;20409;-72
2021/10/28 13:06:30;;;;;;;0.50;0.43;;;;;;;26.52;36.30;101512.50;5072756;28;20974;-72
2021/10/28 13:50:17;;;;;;;0.40;0.30;;;;;;;17.75;57.78;101447.53;5076292;28;20401;-72
2021/10/28 13:53:17;;;;;;;0.40;0.30;;;;;;;17.37;59.77;101441.97;5076594;28;20433;-71
2021/10/28 13:56:04;;;;;;;0.40;0.30;;;;;;;17.09;61.38;101438.81;5076357;28;20437;-72
2021/10/28 14:15:49;;;;;;;0.40;0.30;;;;;;;16.26;66.12;101415.09;5075829;28;20505;-71
2021/10/28 14:21:33;;;;;;;0.40;0.30;;;;;;;16.13;67.23;101414.09;5075368;28;20480;-71
2021/10/28 14:30:04;;;;;;;0.40;0.30;;;;;;;15.91;66.50;101405.19;5075162;28;20828;-71
2021/10/28 15:28:12;;;;;;;0.40;0.27;;;;;;;14.53;75.22;101354.97;5073659;28;20441;-72
2021/10/28 15:31:00;;;;;;;0.40;0.30;;;;;;;14.48;76.09;101356.97;5073864;28;20433;-72
2021/10/28 15:36:11;;;;;;;0.40;0.30;;;;;;;14.30;77.64;101347.84;5073235;28;20474;-72
2021/10/28 15:38:44;;;;;;;0.40;0.30;;;;;;;14.24;79.02;101351.78;5073815;28;20457;-71
2021/10/28 15:41:30;;;;;;;0.40;0.20;;;;;;;14.13;80.03;101346.56;5073617;28;20584;-72
2021/10/28 16:01:13;;;;;;;0.40;0.30;;;;;;;13.41;86.50;101327.34;5089743;28;20401;-72
2021/10/28 16:22:50;;;;;;;0.40;0.30;;;;;;;12.58;90.08;101301.88;5089241;28;20451;-71
2021/10/28 16:25:18;;;;;;;0.40;0.30;;;;;;;12.49;90.36;101295.50;5089351;28;20444;-72
2021/10/28 16:27:44;;;;;;;0.40;0.30;;;;;;;12.41;90.74;101301.59;5089224;28;20468;-72
2021/10/28 16:30:11;;;;;;;0.40;0.30;;;;;;;12.30;91.01;101298.22;5089234;28;20440;-72
2021/10/28 16:32:38;;;;;;;0.40;0.30;;;;;;;12.25;90.92;101290.94;5089347;28;20445;-72
2021/10/28 16:35:06;;;;;;;0.40;0.30;;;;;;;12.20;91.45;101291.03;5089444;28;20475;-71
2021/10/28 16:37:33;;;;;;;0.40;0.20;;;;;;;12.13;91.86;101290.63;5089191;28;20507;-72
2021/10/28 16:39:59;;;;;;;0.40;0.30;;;;;;;12.02;92.16;101291.84;5089131;28;20456;-72
2021/10/28 16:42:27;;;;;;;0.40;0.20;;;;;;;11.98;92.15;101285.38;5088835;28;20793;-71
2021/10/28 16:44:54;;;;;;;0.40;0.30;;;;;;;11.93;92.51;101293.59;5089179;28;20445;-70
2021/10/28 16:47:20;;;;;;;0.40;0.30;;;;;;;11.91;92.54;101288.47;5088726;28;20475;-69
2021/10/28 16:49:46;;;;;;;0.40;0.30;;;;;;;11.80;93.08;101292.38;5089104;28;20448;-70
2021/10/28 16:52:13;;;;;;;0.40;0.30;;;;;;;11.79;92.95;101288.06;5088583;28;20484;-72
2021/10/28 16:54:39;;;;;;;0.40;0.30;;;;;;;11.77;93.19;101282.09;5088785;28;20447;-70
2021/10/28 16:57:06;;;;;;;0.40;0.30;;;;;;;11.71;92.92;101281.38;5088973;28;20839;-72
2021/10/28 16:59:34;;;;;;;0.40;0.30;;;;;;;11.69;93.20;101283.56;5088998;28;20463;-71
2021/10/28 17:02:00;;;;;;;0.40;0.30;;;;;;;11.65;93.71;101285.25;5085942;28;20586;-71
2021/10/28 17:04:27;;;;;;;0.40;0.30;;;;;;;11.59;93.81;101280.97;5075321;28;20449;-71
2021/10/28 17:06:53;;;;;;;0.40;0.30;;;;;;;11.57;94.04;101283.19;5074867;28;20846;-72
2021/10/28 17:09:20;;;;;;;0.40;0.30;;;;;;;11.55;94.65;101277.22;5059058;28;20809;-72
2021/10/28 17:11:47;;;;;;;0.40;0.30;;;;;;;11.52;93.99;101277.81;5069488;28;20595;-72
2021/10/28 17:14:13;;;;;;;0.40;0.27;;;;;;;11.55;93.77;101277.22;5075025;28;20552;-72
2021/10/28 17:16:44;;;;;;;0.43;0.30;;;;;;;11.62;93.13;101278.50;5074896;28;20510;-72
2021/10/28 17:19:12;;;;;;;0.40;0.30;;;;;;;11.67;92.69;101274.09;5074972;28;20512;-72
2021/10/28 17:21:38;;;;;;;0.40;0.30;;;;;;;11.70;92.62;101268.09;5075081;28;20441;-72
2021/10/28 17:24:07;;;;;;;0.40;0.33;;;;;;;11.77;92.33;101272.03;5075014;28;20433;-72
2021/10/28 17:26:35;;;;;;;1.23;1.13;;;;;;;11.86;92.72;101270.34;5074564;28;21005;-72
2021/10/28 17:29:03;;;;;;;0.40;0.30;;;;;;;11.92;93.07;101260.22;5075060;28;20440;-71
2021/10/28 17:31:30;;;;;;;0.40;0.30;;;;;;;12.02;92.67;101270.13;5074990;28;20481;-71
2021/10/28 17:33:59;;;;;;;0.40;0.20;;;;;;;12.11;92.67;101271.06;5074982;28;20544;-71
2021/10/28 17:36:27;;;;;;;0.40;0.30;;;;;;;12.18;91.43;101274.25;5074884;28;20468;-71
2021/10/28 17:38:54;;;;;;;0.80;0.80;;;;;;;12.20;91.12;101271.22;5074844;28;20445;-71
2021/10/28 17:41:21;;;;;;;0.40;0.30;;;;;;;12.24;90.32;101266.81;5074806;28;20441;-71
2021/10/28 17:43:51;;;;;;;0.40;0.30;;;;;;;12.25;89.42;101269.22;5074770;28;20452;-71
2021/10/28 17:46:18;;;;;;;0.40;0.30;;;;;;;12.29;88.47;101275.69;5074617;28;20465;-71
2021/10/28 17:48:44;;;;;;;0.40;0.30;;;;;;;12.32;88.49;101280.53;5074542;28;20473;-71
2021/10/28 17:51:12;;;;;;;0.40;0.30;;;;;;;12.34;88.15;101286.47;5074409;28;20485;-70
2021/10/28 17:53:39;;;;;;;0.40;0.23;;;;;;;12.38;88.00;101282.06;5074558;28;20820;-71
2021/10/28 17:56:06;;;;;;;0.40;0.30;;;;;;;12.42;88.10;101278.75;5074371;28;20473;-70
2021/10/28 17:58:33;;;;;;;0.50;0.40;;;;;;;12.53;87.55;101282.94;5074407;28;20448;-70
2021/10/28 18:00:59;;;;;;;0.40;0.20;;;;;;;12.68;86.86;101284.59;5074391;28;20433;-71
2021/10/28 18:03:26;;;;;;;0.83;0.83;;;;;;;12.76;86.06;101279.28;5074327;28;20444;-70
2021/10/28 18:05:52;;;;;;;0.50;0.40;;;;;;;12.80;85.59;101276.78;5074188;28;20440;-70
2021/10/28 18:08:20;;;;;;;0.40;0.20;;;;;;;12.82;85.01;101274.53;5073880;28;20437;-72
2021/10/28 18:10:47;;;;;;;0.40;0.30;;;;;;;12.84;84.33;101275.06;5074050;28;20452;-70
2021/10/28 18:13:18;;;;;;;0.43;0.33;;;;;;;12.81;83.97;101284.63;5074090;28;20445;-73
2021/10/28 18:15:45;;;;;;;0.40;0.20;;;;;;;12.80;83.82;101279.50;5073717;28;20788;-71
2021/10/28 18:18:11;;;;;;;0.40;0.30;;;;;;;12.84;83.05;101280.50;5074457;28;20449;-71
2021/10/28 18:20:39;;;;;;;0.40;0.30;;;;;;;12.80;83.01;101272.13;5074455;28;20429;-72
2021/10/28 18:23:06;;;;;;;0.40;0.20;;;;;;;12.81;81.68;101271.03;5074374;28;20441;-72
2021/10/28 18:25:35;;;;;;;0.40;0.30;;;;;;;12.85;81.37;101268.53;5074020;28;20950;-72
2021/10/28 18:28:02;;;;;;;0.40;0.30;;;;;;;12.92;80.42;101266.19;5074268;28;20461;-72
2021/10/28 18:30:31;;;;;;;0.40;0.30;;;;;;;12.94;80.23;101269.44;5074296;28;20446;-72
2021/10/28 18:32:58;;;;;;;0.40;0.30;;;;;;;12.83;80.36;101263.38;5074341;28;20531;-72
2021/10/28 18:35:25;;;;;;;0.40;0.30;;;;;;;12.73;79.84;101260.84;5074368;28;20453;-72
2021/10/28 18:37:51;;;;;;;1.43;1.33;;;;;;;12.63;80.12;101267.25;5074246;28;20484;-72
2021/10/28 18:40:18;;;;;;;0.40;0.30;;;;;;;12.57;79.69;101254.88;5074180;28;20452;-72
2021/10/28 18:42:48;;;;;;;0.40;0.30;;;;;;;12.52;79.88;101251.41;5074174;28;20494;-71
2021/10/28 18:45:15;;;;;;;0.40;0.30;;;;;;;12.38;80.08;101257.59;5074408;28;20437;-72
2021/10/28 18:47:42;;;;;;;0.40;0.30;;;;;;;12.35;80.53;101251.94;5074013;28;20511;-72
2021/10/28 18:50:09;;;;;;;0.40;0.30;;;;;;;12.31;81.75;101249.03;5073842;28;20442;-72
2021/10/28 18:52:36;;;;;;;0.40;0.30;;;;;;;12.27;82.43;101241.78;5073994;28;20461;-72
2021/10/28 18:55:04;;;;;;;0.40;0.30;;;;;;;12.28;82.72;101235.25;5073955;28;20457;-72
2021/10/28 18:57:31;;;;;;;0.40;0.30;;;;;;;12.24;83.06;101234.22;5073470;28;21009;-72
2021/10/28 18:59:59;;;;;;;0.40;0.30;;;;;;;12.20;83.32;101227.75;5073918;28;20441;-72
2021/10/28 19:02:27;;;;;;;0.40;0.30;;;;;;;12.16;83.65;101227.53;5073563;28;20935;-72
2021/10/28 19:04:54;;;;;;;0.40;0.30;;;;;;;12.16;83.60;101232.97;5073837;28;20449;-72
2021/10/28 19:07:20;;;;;;;0.40;0.30;;;;;;;12.15;83.45;101228.66;5073708;28;20552;-72
2021/10/28 19:09:47;;;;;;;0.40;0.30;;;;;;;12.23;82.91;101227.97;5073494;28;20926;-72
2021/10/28 19:12:13;;;;;;;0.40;0.30;;;;;;;12.24;82.85;101226.88;5073609;28;20483;-72
2021/10/28 19:14:43;;;;;;;0.40;0.30;;;;;;;12.21;82.44;101229.38;5073569;28;20444;-72
2021/10/28 19:17:11;;;;;;;0.40;0.30;;;;;;;12.16;81.75;101219.41;5073542;28;20561;-72
2021/10/28 19:19:37;;;;;;;1.73;1.63;;;;;;;12.09;80.44;101208.91;5073551;28;20803;-72
2021/10/28 19:22:04;;;;;;;0.40;0.30;;;;;;;12.04;80.40;101216.31;5073791;28;20809;-72
2021/10/28 19:24:31;;;;;;;0.40;0.20;;;;;;;11.99;81.13;101211.78;5070164;28;20458;-71
2021/10/28 19:26:58;;;;;;;0.40;0.30;;;;;;;11.95;81.83;101205.31;5053210;28;20469;-72